Terminal Aerodrome Forecast
Issued by NWS

Home | Current Version | Previous Version | Text Only | Print | Product List | Glossary On
Versions: 1 2 3 4 5 6 7 8 9 10 11 12 13 14 15
000
FTUS45 KABQ 280300 AAA
TAFLVS
TAF AMD
KLVS 280359Z 2804/2824 VRB15G23KT 5SM TSRA BKN050CB
     FM280600 11008KT P6SM VCTS SCT060CB BKN080
     FM280900 11006KT P6SM BKN030
     FM281700 17011KT P6SM SCT060 BKN130
     FM282100 19011G18KT P6SM VCTS BKN060CB OVC120=

USA.gov is the U.S. government's official web portal to all federal, state and local government web resources and services.